sensor_id;sensor_type;location;lat;lon;timestamp;pressure;altitude;pressure_sealevel;temperature;humidity
59951;BME280;45812;53.540;9.774;2022-08-19T00:01:35;101252.13;;;18.80;100.00
59951;BME280;45812;53.540;9.774;2022-08-19T00:04:04;101248.38;;;18.74;100.00
59951;BME280;45812;53.540;9.774;2022-08-19T00:06:30;101242.16;;;18.73;100.00
59951;BME280;45812;53.540;9.774;2022-08-19T00:08:57;101233.88;;;18.82;100.00
59951;BME280;45812;53.540;9.774;2022-08-19T00:11:24;101229.72;;;18.92;100.00
59951;BME280;45812;53.540;9.774;2022-08-19T00:13:55;101219.78;;;18.99;100.00
59951;BME280;45812;53.540;9.774;2022-08-19T00:16:22;101224.53;;;19.04;100.00
59951;BME280;45812;53.540;9.774;2022-08-19T00:18:48;101229.50;;;19.14;100.00
59951;BME280;45812;53.540;9.774;2022-08-19T00:21:13;101232.84;;;19.22;100.00
59951;BME280;45812;53.540;9.774;2022-08-19T00:23:39;101237.59;;;19.33;100.00
59951;BME280;45812;53.540;9.774;2022-08-19T00:26:06;101238.41;;;19.41;100.00
59951;BME280;45812;53.540;9.774;2022-08-19T00:28:32;101235.69;;;19.47;99.45
59951;BME280;45812;53.540;9.774;2022-08-19T00:30:59;101245.69;;;19.53;99.07
59951;BME280;45812;53.540;9.774;2022-08-19T00:33:25;101245.91;;;19.58;98.59
59951;BME280;45812;53.540;9.774;2022-08-19T00:35:50;101244.22;;;19.64;98.23
59951;BME280;45812;53.540;9.774;2022-08-19T00:38:16;101246.28;;;19.69;97.79
59951;BME280;45812;53.540;9.774;2022-08-19T00:40:44;101239.84;;;19.63;98.29
59951;BME280;45812;53.540;9.774;2022-08-19T00:43:13;101243.84;;;19.54;98.90
59951;BME280;45812;53.540;9.774;2022-08-19T00:45:42;101242.53;;;19.50;98.85
59951;BME280;45812;53.540;9.774;2022-08-19T00:48:09;101234.25;;;19.45;99.24
59951;BME280;45812;53.540;9.774;2022-08-19T00:50:34;101229.69;;;19.45;99.14
59951;BME280;45812;53.540;9.774;2022-08-19T00:53:01;101224.28;;;19.45;99.06
59951;BME280;45812;53.540;9.774;2022-08-19T00:55:30;101215.78;;;19.42;99.64
59951;BME280;45812;53.540;9.774;2022-08-19T00:58:06;101216.00;;;19.40;100.00
59951;BME280;45812;53.540;9.774;2022-08-19T01:00:33;101221.41;;;19.40;100.00
59951;BME280;45812;53.540;9.774;2022-08-19T01:03:07;101223.06;;;19.41;100.00
59951;BME280;45812;53.540;9.774;2022-08-19T01:05:34;101222.66;;;19.38;100.00
59951;BME280;45812;53.540;9.774;2022-08-19T01:08:02;101227.41;;;19.29;100.00
59951;BME280;45812;53.540;9.774;2022-08-19T01:10:32;101229.09;;;19.23;100.00
59951;BME280;45812;53.540;9.774;2022-08-19T01:12:59;101219.78;;;19.19;100.00
59951;BME280;45812;53.540;9.774;2022-08-19T01:15:32;101216.84;;;19.14;100.00
59951;BME280;45812;53.540;9.774;2022-08-19T01:18:01;101216.84;;;19.14;100.00
59951;BME280;45812;53.540;9.774;2022-08-19T01:20:29;101209.19;;;19.18;100.00
59951;BME280;45812;53.540;9.774;2022-08-19T01:22:57;101211.25;;;19.16;100.00
59951;BME280;45812;53.540;9.774;2022-08-19T01:25:29;101200.03;;;19.12;100.00
59951;BME280;45812;53.540;9.774;2022-08-19T01:27:56;101200.25;;;19.17;100.00
59951;BME280;45812;53.540;9.774;2022-08-19T01:30:26;101208.97;;;19.13;100.00
59951;BME280;45812;53.540;9.774;2022-08-19T01:32:53;101208.13;;;19.12;100.00
59951;BME280;45812;53.540;9.774;2022-08-19T01:35:19;101209.56;;;19.15;100.00
59951;BME280;45812;53.540;9.774;2022-08-19T01:37:51;101204.00;;;19.16;100.00
59951;BME280;45812;53.540;9.774;2022-08-19T01:40:19;101194.44;;;19.20;100.00
59951;BME280;45812;53.540;9.774;2022-08-19T01:42:49;101195.25;;;19.21;100.00
59951;BME280;45812;53.540;9.774;2022-08-19T01:45:15;101205.03;;;19.22;100.00
59951;BME280;45812;53.540;9.774;2022-08-19T01:47:40;101199.41;;;19.23;100.00
59951;BME280;45812;53.540;9.774;2022-08-19T01:50:07;101199.19;;;19.25;100.00
59951;BME280;45812;53.540;9.774;2022-08-19T01:52:39;101194.00;;;19.23;100.00
59951;BME280;45812;53.540;9.774;2022-08-19T01:55:07;101191.31;;;19.23;100.00
59951;BME280;45812;53.540;9.774;2022-08-19T01:57:33;101193.81;;;19.25;100.00
59951;BME280;45812;53.540;9.774;2022-08-19T01:59:59;101189.84;;;19.27;100.00
59951;BME280;45812;53.540;9.774;2022-08-19T02:02:25;101190.66;;;19.28;100.00
59951;BME280;45812;53.540;9.774;2022-08-19T02:04:50;101189.84;;;19.27;100.00
59951;BME280;45812;53.540;9.774;2022-08-19T02:07:19;101192.97;;;19.24;100.00
59951;BME280;45812;53.540;9.774;2022-08-19T02:09:45;101187.16;;;19.27;100.00
59951;BME280;45812;53.540;9.774;2022-08-19T02:12:10;101191.09;;;19.25;100.00
59951;BME280;45812;53.540;9.774;2022-08-19T02:14:36;101188.00;;;19.21;100.00
59951;BME280;45812;53.540;9.774;2022-08-19T02:17:02;101180.94;;;19.20;100.00
59951;BME280;45812;53.540;9.774;2022-08-19T02:19:28;101172.00;;;19.20;100.00
59951;BME280;45812;53.540;9.774;2022-08-19T02:21:53;101185.09;;;19.23;100.00
59951;BME280;45812;53.540;9.774;2022-08-19T02:24:19;101180.72;;;19.22;100.00
59951;BME280;45812;53.540;9.774;2022-08-19T02:26:44;101171.19;;;19.19;100.00
59951;BME280;45812;53.540;9.774;2022-08-19T02:29:09;101170.56;;;19.17;100.00
59951;BME280;45812;53.540;9.774;2022-08-19T02:31:35;101166.22;;;19.10;100.00
59951;BME280;45812;53.540;9.774;2022-08-19T02:34:01;101166.41;;;19.08;100.00
59951;BME280;45812;53.540;9.774;2022-08-19T02:36:26;101166.41;;;19.08;100.00
59951;BME280;45812;53.540;9.774;2022-08-19T02:38:53;101155.63;;;19.08;100.00
59951;BME280;45812;53.540;9.774;2022-08-19T02:41:24;101153.78;;;19.02;100.00
59951;BME280;45812;53.540;9.774;2022-08-19T02:43:50;101152.94;;;19.01;100.00
59951;BME280;45812;53.540;9.774;2022-08-19T02:46:23;101158.75;;;19.05;100.00
59951;BME280;45812;53.540;9.774;2022-08-19T02:48:50;101163.09;;;19.06;100.00
59951;BME280;45812;53.540;9.774;2022-08-19T02:51:23;101155.03;;;18.99;100.00
59951;BME280;45812;53.540;9.774;2022-08-19T02:53:49;101172.66;;;18.95;100.00
59951;BME280;45812;53.540;9.774;2022-08-19T02:56:15;101164.38;;;18.97;100.00
59951;BME280;45812;53.540;9.774;2022-08-19T02:58:40;101162.09;;;19.00;100.00
59951;BME280;45812;53.540;9.774;2022-08-19T03:01:06;101170.38;;;19.05;100.00
59951;BME280;45812;53.540;9.774;2022-08-19T03:03:32;101166.22;;;19.03;100.00
59951;BME280;45812;53.540;9.774;2022-08-19T03:08:30;101180.34;;;19.05;100.00
59951;BME280;45812;53.540;9.774;2022-08-19T03:10:55;101169.53;;;19.05;100.00
59951;BME280;45812;53.540;9.774;2022-08-19T03:13:21;101171.44;;;18.98;100.00
59951;BME280;45812;53.540;9.774;2022-08-19T03:15:47;101172.47;;;18.97;100.00
59951;BME280;45812;53.540;9.774;2022-08-19T03:18:14;101186.13;;;18.95;100.00
59951;BME280;45812;53.540;9.774;2022-08-19T03:20:51;101180.53;;;18.90;100.00
59951;BME280;45812;53.540;9.774;2022-08-19T03:23:19;101180.75;;;18.89;100.00
59951;BME280;45812;53.540;9.774;2022-08-19T03:25:49;101191.97;;;18.86;100.00
59951;BME280;45812;53.540;9.774;2022-08-19T03:28:15;101187.59;;;18.85;100.00
59951;BME280;45812;53.540;9.774;2022-08-19T03:30:42;101183.88;;;18.79;100.00
59951;BME280;45812;53.540;9.774;2022-08-19T03:33:10;101179.53;;;18.78;100.00
59951;BME280;45812;53.540;9.774;2022-08-19T03:35:36;101181.16;;;18.72;100.00
59951;BME280;45812;53.540;9.774;2022-08-19T03:38:03;101186.75;;;18.71;100.00
59951;BME280;45812;53.540;9.774;2022-08-19T03:40:29;101195.91;;;18.70;100.00
59951;BME280;45812;53.540;9.774;2022-08-19T03:42:56;101202.31;;;18.62;100.00
59951;BME280;45812;53.540;9.774;2022-08-19T03:45:21;101204.16;;;18.62;100.00
59951;BME280;45812;53.540;9.774;2022-08-19T03:47:47;101208.50;;;18.56;100.00
59951;BME280;45812;53.540;9.774;2022-08-19T03:50:12;101206.22;;;18.53;100.00
59951;BME280;45812;53.540;9.774;2022-08-19T03:52:37;101212.84;;;18.51;100.00
59951;BME280;45812;53.540;9.774;2022-08-19T03:55:04;101211.19;;;18.50;100.00
59951;BME280;45812;53.540;9.774;2022-08-19T03:57:30;101213.88;;;18.43;100.00
59951;BME280;45812;53.540;9.774;2022-08-19T03:59:55;101205.97;;;18.35;100.00
59951;BME280;45812;53.540;9.774;2022-08-19T04:02:21;101208.88;;;18.27;100.00
59951;BME280;45812;53.540;9.774;2022-08-19T04:04:46;101204.50;;;18.26;100.00
59951;BME280;45812;53.540;9.774;2022-08-19T04:07:13;101211.16;;;18.30;100.00
59951;BME280;45812;53.540;9.774;2022-08-19T04:09:41;101208.03;;;18.26;100.00
59951;BME280;45812;53.540;9.774;2022-08-19T04:12:06;101200.94;;;18.19;100.00
59951;BME280;45812;53.540;9.774;2022-08-19T04:14:33;101202.59;;;18.13;100.00
59951;BME280;45812;53.540;9.774;2022-08-19T04:17:00;101205.91;;;18.08;100.00
59951;BME280;45812;53.540;9.774;2022-08-19T04:19:29;101212.31;;;18.07;100.00
59951;BME280;45812;53.540;9.774;2022-08-19T04:21:55;101210.06;;;18.11;100.00
59951;BME280;45812;53.540;9.774;2022-08-19T04:24:21;101222.50;;;18.19;100.00
59951;BME280;45812;53.540;9.774;2022-08-19T04:26:47;101221.88;;;18.16;100.00
59951;BME280;45812;53.540;9.774;2022-08-19T04:29:15;101233.91;;;18.21;100.00
59951;BME280;45812;53.540;9.774;2022-08-19T04:31:43;101230.84;;;18.24;100.00
59951;BME280;45812;53.540;9.774;2022-08-19T04:34:12;101239.94;;;18.23;100.00
59951;BME280;45812;53.540;9.774;2022-08-19T04:36:39;101240.56;;;18.25;100.00
59951;BME280;45812;53.540;9.774;2022-08-19T04:39:09;101246.59;;;18.27;100.00
59951;BME280;45812;53.540;9.774;2022-08-19T04:41:35;101247.00;;;18.24;100.00
59951;BME280;45812;53.540;9.774;2022-08-19T04:44:19;101248.22;;;18.21;100.00
59951;BME280;45812;53.540;9.774;2022-08-19T04:46:47;101252.13;;;18.19;100.00
59951;BME280;45812;53.540;9.774;2022-08-19T04:49:14;101244.03;;;18.12;100.00
59951;BME280;45812;53.540;9.774;2022-08-19T04:51:41;101252.53;;;18.09;100.00
59951;BME280;45812;53.540;9.774;2022-08-19T04:54:08;101253.78;;;18.06;100.00
59951;BME280;45812;53.540;9.774;2022-08-19T04:56:33;101254.41;;;18.08;100.00
59951;BME280;45812;53.540;9.774;2022-08-19T04:58:59;101257.09;;;18.08;100.00
59951;BME280;45812;53.540;9.774;2022-08-19T05:01:28;101248.97;;;18.02;100.00
59951;BME280;45812;53.540;9.774;2022-08-19T05:03:55;101258.53;;;18.04;100.00
59951;BME280;45812;53.540;9.774;2022-08-19T05:06:22;101258.53;;;18.04;100.00
59951;BME280;45812;53.540;9.774;2022-08-19T05:08:48;101258.13;;;18.07;100.00
59951;BME280;45812;53.540;9.774;2022-08-19T05:11:17;101257.72;;;18.10;100.00
59951;BME280;45812;53.540;9.774;2022-08-19T05:13:44;101257.50;;;18.12;100.00
59951;BME280;45812;53.540;9.774;2022-08-19T05:16:11;101252.53;;;18.15;100.00
59951;BME280;45812;53.540;9.774;2022-08-19T05:18:37;101263.38;;;18.22;100.00
59951;BME280;45812;53.540;9.774;2022-08-19T05:21:21;101268.56;;;18.24;100.00
59951;BME280;45812;53.540;9.774;2022-08-19T05:24:06;101258.19;;;18.27;100.00
59951;BME280;45812;53.540;9.774;2022-08-19T05:26:36;101260.69;;;18.35;100.00
59951;BME280;45812;53.540;9.774;2022-08-19T05:29:02;101260.53;;;18.43;100.00
59951;BME280;45812;53.540;9.774;2022-08-19T05:31:28;101268.63;;;18.50;100.00
59951;BME280;45812;53.540;9.774;2022-08-19T05:33:53;101265.53;;;18.53;100.00
59951;BME280;45812;53.540;9.774;2022-08-19T05:36:18;101267.38;;;18.53;100.00
59951;BME280;45812;53.540;9.774;2022-08-19T05:38:45;101271.53;;;18.55;100.00
59951;BME280;45812;53.540;9.774;2022-08-19T05:41:12;101264.28;;;18.56;100.00
59951;BME280;45812;53.540;9.774;2022-08-19T05:43:38;101263.25;;;18.57;100.00
59951;BME280;45812;53.540;9.774;2022-08-19T05:46:04;101270.09;;;18.59;100.00
59951;BME280;45812;53.540;9.774;2022-08-19T05:48:32;101268.06;;;18.61;100.00
59951;BME280;45812;53.540;9.774;2022-08-19T05:50:57;101265.19;;;18.69;100.00
59951;BME280;45812;53.540;9.774;2022-08-19T05:53:23;101267.88;;;18.76;100.00
59951;BME280;45812;53.540;9.774;2022-08-19T05:55:49;101265.38;;;18.74;100.00
59951;BME280;45812;53.540;9.774;2022-08-19T05:58:14;101262.28;;;18.71;100.00
59951;BME280;45812;53.540;9.774;2022-08-19T06:00:42;101264.34;;;18.69;100.00
59951;BME280;45812;53.540;9.774;2022-08-19T06:03:08;101262.28;;;18.71;100.00
59951;BME280;45812;53.540;9.774;2022-08-19T06:05:33;101257.09;;;18.76;100.00
59951;BME280;45812;53.540;9.774;2022-08-19T06:07:59;101250.66;;;18.77;100.00
59951;BME280;45812;53.540;9.774;2022-08-19T06:10:24;101260.03;;;18.81;100.00
59951;BME280;45812;53.540;9.774;2022-08-19T06:12:51;101259.81;;;18.83;100.00
59951;BME280;45812;53.540;9.774;2022-08-19T06:15:16;101261.28;;;18.85;100.00
59951;BME280;45812;53.540;9.774;2022-08-19T06:17:42;101260.03;;;18.88;100.00
59951;BME280;45812;53.540;9.774;2022-08-19T06:20:12;101260.63;;;18.90;100.00
59951;BME280;45812;53.540;9.774;2022-08-19T06:22:44;101260.44;;;18.85;100.00
59951;BME280;45812;53.540;9.774;2022-08-19T06:25:11;101272.06;;;18.85;100.00
59951;BME280;45812;53.540;9.774;2022-08-19T06:27:37;101267.69;;;18.84;100.00
59951;BME280;45812;53.540;9.774;2022-08-19T06:30:04;101275.78;;;18.84;100.00
59951;BME280;45812;53.540;9.774;2022-08-19T06:32:29;101273.91;;;18.85;100.00
59951;BME280;45812;53.540;9.774;2022-08-19T06:34:55;101271.84;;;18.87;100.00
59951;BME280;45812;53.540;9.774;2022-08-19T06:37:21;101279.53;;;18.90;100.00
59951;BME280;45812;53.540;9.774;2022-08-19T06:39:48;101277.25;;;18.93;100.00
59951;BME280;45812;53.540;9.774;2022-08-19T06:42:13;101278.69;;;18.96;100.00
59951;BME280;45812;53.540;9.774;2022-08-19T06:44:42;101268.13;;;19.01;100.00
59951;BME280;45812;53.540;9.774;2022-08-19T06:47:10;101270.81;;;19.08;100.00
59951;BME280;45812;53.540;9.774;2022-08-19T06:49:36;101263.97;;;19.05;100.00
59951;BME280;45812;53.540;9.774;2022-08-19T06:52:02;101271.25;;;19.04;100.00
59951;BME280;45812;53.540;9.774;2022-08-19T06:54:28;101269.56;;;19.10;100.00
59951;BME280;45812;53.540;9.774;2022-08-19T06:56:58;101262.13;;;19.19;99.34
59951;BME280;45812;53.540;9.774;2022-08-19T06:59:27;101257.16;;;19.16;99.02
59951;BME280;45812;53.540;9.774;2022-08-19T07:01:55;101267.09;;;19.15;99.14
59951;BME280;45812;53.540;9.774;2022-08-19T07:04:24;101266.66;;;19.12;98.85
59951;BME280;45812;53.540;9.774;2022-08-19T07:06:52;101276.22;;;19.14;98.69
59951;BME280;45812;53.540;9.774;2022-08-19T07:09:21;101269.78;;;19.22;98.44
59951;BME280;45812;53.540;9.774;2022-08-19T07:11:48;101267.09;;;19.35;97.51
59951;BME280;45812;53.540;9.774;2022-08-19T07:14:16;101270.81;;;19.47;96.93
59951;BME280;45812;53.540;9.774;2022-08-19T07:16:43;101274.78;;;19.58;96.32
59951;BME280;45812;53.540;9.774;2022-08-19T07:19:11;101268.72;;;19.76;95.40
59951;BME280;45812;53.540;9.774;2022-08-19T07:21:36;101265.56;;;19.92;94.18
59951;BME280;45812;53.540;9.774;2022-08-19T07:24:02;101256.97;;;20.08;92.86
59951;BME280;45812;53.540;9.774;2022-08-19T07:26:31;101269.19;;;20.17;92.07
59951;BME280;45812;53.540;9.774;2022-08-19T07:28:58;101275.44;;;20.18;91.72
59951;BME280;45812;53.540;9.774;2022-08-19T07:31:26;101272.34;;;20.08;92.08
59951;BME280;45812;53.540;9.774;2022-08-19T07:33:53;101284.03;;;19.88;92.69
59951;BME280;45812;53.540;9.774;2022-08-19T07:36:22;101281.41;;;19.75;94.35
59951;BME280;45812;53.540;9.774;2022-08-19T07:38:49;101288.25;;;19.78;94.25
59951;BME280;45812;53.540;9.774;2022-08-19T07:41:18;101295.94;;;19.74;93.92
59951;BME280;45812;53.540;9.774;2022-08-19T07:43:44;101294.69;;;19.63;94.82
59951;BME280;45812;53.540;9.774;2022-08-19T07:46:11;101302.81;;;19.63;95.04
59951;BME280;45812;53.540;9.774;2022-08-19T07:48:39;101306.13;;;19.52;95.53
59951;BME280;45812;53.540;9.774;2022-08-19T07:51:06;101310.88;;;19.50;96.26
59951;BME280;45812;53.540;9.774;2022-08-19T07:53:34;101308.41;;;19.49;96.64
59951;BME280;45812;53.540;9.774;2022-08-19T07:56:01;101314.06;;;19.54;97.10
59951;BME280;45812;53.540;9.774;2022-08-19T07:58:34;101316.50;;;19.49;97.13
59951;BME280;45812;53.540;9.774;2022-08-19T08:01:00;101318.97;;;19.50;97.54
59951;BME280;45812;53.540;9.774;2022-08-19T08:03:26;101318.59;;;19.53;97.63
59951;BME280;45812;53.540;9.774;2022-08-19T08:06:12;101315.25;;;19.51;96.94
59951;BME280;45812;53.540;9.774;2022-08-19T08:08:56;101330.59;;;19.51;97.23
59951;BME280;45812;53.540;9.774;2022-08-19T08:11:42;101325.69;;;19.54;96.70
59951;BME280;45812;53.540;9.774;2022-08-19T08:14:08;101338.53;;;19.52;96.20
59951;BME280;45812;53.540;9.774;2022-08-19T08:16:37;101343.28;;;19.50;96.99
59951;BME280;45812;53.540;9.774;2022-08-19T08:19:06;101340.59;;;19.50;96.64
59951;BME280;45812;53.540;9.774;2022-08-19T08:21:33;101347.66;;;19.45;97.28
59951;BME280;45812;53.540;9.774;2022-08-19T08:23:59;101353.25;;;19.43;97.56
59951;BME280;45812;53.540;9.774;2022-08-19T08:26:24;101361.78;;;19.40;98.14
59951;BME280;45812;53.540;9.774;2022-08-19T08:28:51;101360.13;;;19.39;98.56
59951;BME280;45812;53.540;9.774;2022-08-19T08:31:16;101363.03;;;19.38;99.17
59951;BME280;45812;53.540;9.774;2022-08-19T08:33:43;101358.47;;;19.45;98.60
59951;BME280;45812;53.540;9.774;2022-08-19T08:36:09;101361.34;;;19.50;97.96
59951;BME280;45812;53.540;9.774;2022-08-19T08:38:36;101355.56;;;19.53;98.17
59951;BME280;45812;53.540;9.774;2022-08-19T08:43:37;101363.06;;;19.64;97.38
59951;BME280;45812;53.540;9.774;2022-08-19T08:48:46;101354.13;;;19.77;96.89
59951;BME280;45812;53.540;9.774;2022-08-19T08:51:22;101350.16;;;19.79;95.55
59951;BME280;45812;53.540;9.774;2022-08-19T08:53:51;101348.25;;;20.00;94.97
59951;BME280;45812;53.540;9.774;2022-08-19T08:56:17;101345.88;;;20.30;93.24
59951;BME280;45812;53.540;9.774;2022-08-19T08:58:59;101353.47;;;20.66;91.32
59951;BME280;45812;53.540;9.774;2022-08-19T09:01:26;101343.47;;;20.98;89.45
59951;BME280;45812;53.540;9.774;2022-08-19T09:03:52;101349.47;;;21.38;87.36
59951;BME280;45812;53.540;9.774;2022-08-19T09:06:22;101338.09;;;21.54;85.42
59951;BME280;45812;53.540;9.774;2022-08-19T09:09:12;101347.00;;;21.61;84.72
59951;BME280;45812;53.540;9.774;2022-08-19T09:16:57;101350.81;;;21.29;86.71
59951;BME280;45812;53.540;9.774;2022-08-19T09:19:23;101348.66;;;21.37;86.90
59951;BME280;45812;53.540;9.774;2022-08-19T09:21:48;101355.22;;;21.48;86.20
59951;BME280;45812;53.540;9.774;2022-08-19T09:24:14;101350.19;;;21.52;85.91
59951;BME280;45812;53.540;9.774;2022-08-19T09:26:39;101352.97;;;21.45;85.91
59951;BME280;45812;53.540;9.774;2022-08-19T09:29:05;101356.88;;;21.49;86.19
59951;BME280;45812;53.540;9.774;2022-08-19T09:31:31;101349.38;;;21.51;85.25
59951;BME280;45812;53.540;9.774;2022-08-19T09:33:58;101351.03;;;21.52;86.02
59951;BME280;45812;53.540;9.774;2022-08-19T09:36:26;101336.25;;;21.73;84.54
59951;BME280;45812;53.540;9.774;2022-08-19T09:38:54;101341.47;;;21.93;83.73
59951;BME280;45812;53.540;9.774;2022-08-19T09:41:21;101340.13;;;21.84;83.64
59951;BME280;45812;53.540;9.774;2022-08-19T09:43:49;101337.97;;;21.67;84.92
59951;BME280;45812;53.540;9.774;2022-08-19T09:46:17;101340.78;;;21.79;84.99
59951;BME280;45812;53.540;9.774;2022-08-19T09:48:44;101330.84;;;21.91;84.23
59951;BME280;45812;53.540;9.774;2022-08-19T09:51:15;101335.88;;;22.13;83.87
59951;BME280;45812;53.540;9.774;2022-08-19T09:53:43;101336.91;;;22.12;83.15
59951;BME280;45812;53.540;9.774;2022-08-19T09:56:09;101337.88;;;21.99;84.40
59951;BME280;45812;53.540;9.774;2022-08-19T09:58:35;101339.59;;;21.93;84.71
59951;BME280;45812;53.540;9.774;2022-08-19T10:01:03;101353.97;;;21.94;85.09
59951;BME280;45812;53.540;9.774;2022-08-19T10:03:30;101352.84;;;21.83;84.61
59951;BME280;45812;53.540;9.774;2022-08-19T10:05:57;101361.41;;;21.55;nan
59951;BME280;45812;53.540;9.774;2022-08-19T10:08:29;101343.91;;;21.33;87.05
59951;BME280;45812;53.540;9.774;2022-08-19T10:10:55;101350.41;;;21.18;87.84
59951;BME280;45812;53.540;9.774;2022-08-19T10:13:22;101351.53;;;21.11;88.85
59951;BME280;45812;53.540;9.774;2022-08-19T10:15:49;101356.66;;;21.19;88.75
59951;BME280;45812;53.540;9.774;2022-08-19T10:18:19;101356.88;;;21.17;88.61
59951;BME280;45812;53.540;9.774;2022-08-19T10:20:49;101354.78;;;21.20;89.89
59951;BME280;45812;53.540;9.774;2022-08-19T10:23:15;101347.28;;;21.28;89.10
59951;BME280;45812;53.540;9.774;2022-08-19T10:25:41;101351.91;;;21.46;88.51
59951;BME280;45812;53.540;9.774;2022-08-19T10:28:07;101348.38;;;21.70;87.49
59951;BME280;45812;53.540;9.774;2022-08-19T10:30:34;101353.19;;;21.68;87.32
59951;BME280;45812;53.540;9.774;2022-08-19T10:33:00;101359.66;;;21.67;87.99
59951;BME280;45812;53.540;9.774;2022-08-19T10:35:25;101346.94;;;21.68;87.87
59951;BME280;45812;53.540;9.774;2022-08-19T10:37:55;101348.53;;;21.75;86.86
59951;BME280;45812;53.540;9.774;2022-08-19T10:40:25;101348.63;;;21.87;86.49
59951;BME280;45812;53.540;9.774;2022-08-19T10:42:51;101358.00;;;22.10;84.85
59951;BME280;45812;53.540;9.774;2022-08-19T10:45:16;101355.84;;;22.18;84.38
59951;BME280;45812;53.540;9.774;2022-08-19T10:47:42;101350.41;;;22.18;83.81
59951;BME280;45812;53.540;9.774;2022-08-19T10:50:07;101342.03;;;22.38;82.58
59951;BME280;45812;53.540;9.774;2022-08-19T10:52:51;101350.69;;;22.95;79.70
59951;BME280;45812;53.540;9.774;2022-08-19T10:55:20;101346.31;;;23.36;78.68
59951;BME280;45812;53.540;9.774;2022-08-19T10:58:08;101346.00;;;23.91;75.45
59951;BME280;45812;53.540;9.774;2022-08-19T11:00:35;101334.94;;;24.44;73.00
59951;BME280;45812;53.540;9.774;2022-08-19T11:03:00;101341.34;;;24.66;71.66
59951;BME280;45812;53.540;9.774;2022-08-19T11:05:25;101342.78;;;24.29;72.91
59951;BME280;45812;53.540;9.774;2022-08-19T11:07:50;101340.22;;;23.87;74.06
59951;BME280;45812;53.540;9.774;2022-08-19T11:10:16;101334.63;;;23.35;76.57
59951;BME280;45812;53.540;9.774;2022-08-19T11:12:44;101338.16;;;23.36;77.21
59951;BME280;45812;53.540;9.774;2022-08-19T11:15:11;101339.03;;;23.60;75.83
59951;BME280;45812;53.540;9.774;2022-08-19T11:17:38;101338.59;;;23.63;75.57
59951;BME280;45812;53.540;9.774;2022-08-19T11:20:10;101347.53;;;23.75;75.61
59951;BME280;45812;53.540;9.774;2022-08-19T11:22:36;101348.72;;;23.79;75.09
59951;BME280;45812;53.540;9.774;2022-08-19T11:25:01;101346.78;;;23.56;75.53
59951;BME280;45812;53.540;9.774;2022-08-19T11:27:27;101354.75;;;23.58;76.66
59951;BME280;45812;53.540;9.774;2022-08-19T11:29:54;101356.53;;;23.87;74.40
59951;BME280;45812;53.540;9.774;2022-08-19T11:32:19;101342.66;;;24.24;72.60
59951;BME280;45812;53.540;9.774;2022-08-19T11:34:44;101347.69;;;24.84;70.78
59951;BME280;45812;53.540;9.774;2022-08-19T11:37:09;101344.50;;;25.49;67.66
59951;BME280;45812;53.540;9.774;2022-08-19T11:39:36;101334.16;;;25.34;68.11
59951;BME280;45812;53.540;9.774;2022-08-19T11:42:04;101334.88;;;25.63;66.87
59951;BME280;45812;53.540;9.774;2022-08-19T11:44:50;101331.41;;;26.23;64.92
59951;BME280;45812;53.540;9.774;2022-08-19T11:47:16;101335.44;;;26.91;63.22
59951;BME280;45812;53.540;9.774;2022-08-19T11:49:41;101324.56;;;28.70;56.32
59951;BME280;45812;53.540;9.774;2022-08-19T11:52:07;101320.13;;;30.17;49.65
59951;BME280;45812;53.540;9.774;2022-08-19T11:54:32;101308.78;;;30.83;47.28
59951;BME280;45812;53.540;9.774;2022-08-19T11:56:58;101314.06;;;31.71;44.36
59951;BME280;45812;53.540;9.774;2022-08-19T11:59:23;101319.59;;;32.62;41.59
59951;BME280;45812;53.540;9.774;2022-08-19T12:01:48;101313.50;;;33.95;39.29
59951;BME280;45812;53.540;9.774;2022-08-19T12:04:14;101313.50;;;35.17;36.96
59951;BME280;45812;53.540;9.774;2022-08-19T12:06:40;101321.03;;;35.47;34.76
59951;BME280;45812;53.540;9.774;2022-08-19T12:09:07;101302.50;;;37.05;32.60
59951;BME280;45812;53.540;9.774;2022-08-19T12:11:34;101317.91;;;36.11;33.04
59951;BME280;45812;53.540;9.774;2022-08-19T12:14:02;101322.03;;;34.84;35.71
59951;BME280;45812;53.540;9.774;2022-08-19T12:16:29;101316.91;;;33.59;38.41
59951;BME280;45812;53.540;9.774;2022-08-19T12:18:55;101324.59;;;32.17;41.11
59951;BME280;45812;53.540;9.774;2022-08-19T12:21:24;101316.03;;;30.68;43.87
59951;BME280;45812;53.540;9.774;2022-08-19T12:23:50;101318.84;;;29.78;46.29
59951;BME280;45812;53.540;9.774;2022-08-19T12:26:17;101321.59;;;29.78;46.87
59951;BME280;45812;53.540;9.774;2022-08-19T12:28:42;101317.53;;;29.50;47.24
59951;BME280;45812;53.540;9.774;2022-08-19T12:31:08;101313.97;;;29.24;48.86
59951;BME280;45812;53.540;9.774;2022-08-19T12:33:37;101318.59;;;29.65;48.03
59951;BME280;45812;53.540;9.774;2022-08-19T12:36:05;101322.38;;;29.94;48.03
59951;BME280;45812;53.540;9.774;2022-08-19T12:38:31;101318.34;;;29.51;47.10
59951;BME280;45812;53.540;9.774;2022-08-19T12:40:57;101311.19;;;28.84;50.18
59951;BME280;45812;53.540;9.774;2022-08-19T12:43:22;101311.97;;;28.74;50.15
59951;BME280;45812;53.540;9.774;2022-08-19T12:45:48;101302.06;;;28.63;49.60
59951;BME280;45812;53.540;9.774;2022-08-19T12:48:13;101302.56;;;28.34;50.96
59951;BME280;45812;53.540;9.774;2022-08-19T12:50:44;101302.56;;;28.29;51.92
59951;BME280;45812;53.540;9.774;2022-08-19T12:53:13;101305.13;;;28.82;50.80
59951;BME280;45812;53.540;9.774;2022-08-19T12:55:38;101298.34;;;29.05;49.39
59951;BME280;45812;53.540;9.774;2022-08-19T12:58:04;101297.72;;;29.69;48.05
59951;BME280;45812;53.540;9.774;2022-08-19T13:00:29;101299.38;;;29.70;47.08